Time;durP1;ratioP1;P1;durP2;ratioP2;P2;SDS_P1;SDS_P2;PMS_P1;PMS_P2;Temp;Humidity;BMP_temperature;BMP_pressure;BME280_temperature;BME280_humidity;BME280_pressure;Samples;Min_cycle;Max_cycle;Signal;HPM_P1;HPM_P2
2023/04/20 00:01:09;;;;;;;32.37;17.77;;;;;;;-141.97;100.00;47828.53;5052101;28;20182;-83
2023/04/20 00:03:36;;;;;;;31.03;17.50;;;;;;;-141.97;100.00;47845.84;5051509;28;20623;-83
2023/04/20 00:06:02;;;;;;;29.50;17.70;;;;;;;-141.97;100.00;47870.81;5052543;28;20153;-83
2023/04/20 00:08:27;;;;;;;30.13;18.13;;;;;;;-141.97;100.00;47870.81;5051812;28;20204;-83
2023/04/20 00:10:53;;;;;;;34.13;18.87;;;;;;;-141.97;100.00;47857.38;5051891;28;20257;-83
2023/04/20 00:13:18;;;;;;;34.13;18.90;;;;;;;-141.97;100.00;47851.59;5051898;28;20557;-83
2023/04/20 00:15:44;;;;;;;31.80;17.90;;;;;;;-141.97;100.00;47901.59;5053119;28;20177;-83
2023/04/20 00:18:10;;;;;;;30.20;17.90;;;;;;;-141.97;100.00;47840.06;5070230;28;20161;-83
2023/04/20 00:20:35;;;;;;;30.53;17.80;;;;;;;-141.97;100.00;47845.84;5061545;28;20161;-83
2023/04/20 00:23:01;;;;;;;30.23;17.00;;;;;;;-141.97;100.00;47828.53;5051155;28;20590;-83
2023/04/20 00:25:28;;;;;;;28.60;16.07;;;;;;;-141.97;100.00;47792.03;5051229;28;20172;-82
2023/04/20 00:27:54;;;;;;;27.10;15.87;;;;;;;-141.97;100.00;47778.56;5050695;28;20177;-83
2023/04/20 00:30:19;;;;;;;27.07;15.40;;;;;;;-141.97;100.00;47905.44;5033364;28;20177;-83
2023/04/20 00:32:45;;;;;;;24.73;15.60;;;;;;;-141.97;100.00;47838.16;5051605;28;20169;-83
2023/04/20 00:35:11;;;;;;;31.03;17.87;;;;;;;-141.97;100.00;47803.56;5051505;28;20196;-83
2023/04/20 00:37:36;;;;;;;31.87;17.77;;;;;;;-141.97;100.00;47932.34;5050953;28;20245;-83
2023/04/20 00:40:02;;;;;;;30.53;17.73;;;;;;;-141.97;100.00;47866.97;5051268;28;20204;-82
2023/04/20 00:42:28;;;;;;;31.40;17.73;;;;;;;-141.97;100.00;47861.22;5051279;28;20261;-82
2023/04/20 00:44:53;;;;;;;31.53;17.47;;;;;;;-141.97;100.00;47824.69;5051068;28;20161;-83
2023/04/20 00:47:19;;;;;;;29.50;17.73;;;;;;;-141.97;100.00;47830.47;5033228;28;20181;-83
2023/04/20 00:49:44;;;;;;;32.93;18.27;;;;;;;-141.97;100.00;47853.53;5049907;28;20173;-82
2023/04/20 00:52:10;;;;;;;31.83;17.80;;;;;;;-141.97;100.00;47840.06;5033793;28;20176;-82
2023/04/20 00:54:36;;;;;;;32.97;18.03;;;;;;;-141.97;100.00;47832.38;5056356;28;20177;-82
2023/04/20 00:57:03;;;;;;;31.23;17.80;;;;;;;-141.97;100.00;47861.22;5066920;28;20261;-84
2023/04/20 00:59:28;;;;;;;30.63;17.40;;;;;;;-141.97;100.00;47776.63;5052434;28;20659;-83
2023/04/20 01:01:54;;;;;;;33.03;18.13;;;;;;;-141.97;100.00;47876.59;5051054;28;20170;-83
2023/04/20 01:04:20;;;;;;;31.90;17.47;;;;;;;-141.97;100.00;47822.78;5051606;28;20640;-83
2023/04/20 01:06:45;;;;;;;30.13;16.43;;;;;;;-141.97;100.00;47818.94;5050868;28;20556;-82
2023/04/20 01:09:11;;;;;;;30.40;16.60;;;;;;;-141.97;100.00;47959.25;5033076;28;20183;-82
2023/04/20 01:11:37;;;;;;;28.13;17.10;;;;;;;-141.97;100.00;47866.97;5050934;28;20168;-82
2023/04/20 01:14:02;;;;;;;29.50;16.90;;;;;;;-141.97;100.00;47813.16;5050938;28;20169;-83
2023/04/20 01:16:28;;;;;;;28.87;16.43;;;;;;;-141.97;100.00;47872.75;5033717;28;20204;-83
2023/04/20 01:18:55;;;;;;;25.73;14.83;;;;;;;-141.97;100.00;47865.06;5050547;28;20627;-82
2023/04/20 01:21:22;;;;;;;25.03;14.17;;;;;;;-141.97;100.00;47834.31;5051330;28;20756;-83
2023/04/20 01:23:47;;;;;;;24.43;14.00;;;;;;;-141.97;100.00;47803.56;5056041;28;20251;-82
2023/04/20 01:26:16;;;;;;;25.77;14.10;;;;;;;-141.97;100.00;47853.53;5052886;28;20202;-83
2023/04/20 01:28:42;;;;;;;23.73;13.80;;;;;;;-141.97;100.00;47911.19;5051173;28;20180;-83
2023/04/20 01:31:08;;;;;;;22.20;13.83;;;;;;;-141.97;100.00;47849.69;5033974;28;20656;-83
2023/04/20 01:33:35;;;;;;;21.30;12.10;;;;;;;-141.97;100.00;47970.78;5050940;28;20575;-83
2023/04/20 01:36:00;;;;;;;20.17;13.13;;;;;;;-141.97;100.00;47803.56;5036881;28;20620;-83
2023/04/20 01:38:26;;;;;;;21.63;13.53;;;;;;;-141.97;100.00;47838.16;5054574;28;20177;-83
2023/04/20 01:40:53;;;;;;;22.20;13.33;;;;;;;-141.97;100.00;47897.75;5037027;28;20185;-83
2023/04/20 01:43:19;;;;;;;18.13;10.17;;;;;;;-141.97;100.00;47853.53;5054842;28;20736;-83
2023/04/20 01:45:45;;;;;;;21.23;12.97;;;;;;;-141.97;100.00;47865.06;5054424;28;20165;-83
2023/04/20 01:48:10;;;;;;;19.57;13.17;;;;;;;-141.97;100.00;47799.72;5053308;28;20185;-83
2023/04/20 01:50:36;;;;;;;20.40;12.70;;;;;;;-141.97;100.00;47901.59;5037345;28;20180;-83
2023/04/20 01:53:01;;;;;;;19.80;12.03;;;;;;;-141.97;100.00;47792.03;5063924;28;20235;-82
2023/04/20 01:55:27;;;;;;;19.87;12.03;;;;;;;-141.97;100.00;47738.19;5039770;28;20249;-83
2023/04/20 01:57:52;;;;;;;20.83;13.17;;;;;;;-141.97;100.00;47707.44;5053846;28;20288;-83
2023/04/20 02:00:18;;;;;;;19.50;12.67;;;;;;;-141.97;100.00;47815.09;5054873;28;20157;-83
2023/04/20 02:02:43;;;;;;;20.07;13.33;;;;;;;-141.97;100.00;47768.94;5054554;28;20723;-83
2023/04/20 02:05:09;;;;;;;20.33;12.27;;;;;;;-141.97;100.00;47788.19;5054403;28;20582;-83
2023/04/20 02:07:34;;;;;;;21.07;12.40;;;;;;;-141.97;100.00;47915.03;5036056;28;20176;-83
2023/04/20 02:10:00;;;;;;;20.53;11.87;;;;;;;-141.97;100.00;47611.34;5053754;28;20189;-83
2023/04/20 02:12:25;;;;;;;18.63;11.40;;;;;;;-141.97;100.00;47918.88;5054210;28;20584;-83
2023/04/20 02:14:51;;;;;;;18.67;13.00;;;;;;;-141.97;100.00;47726.66;5054376;28;20166;-83
2023/04/20 02:17:16;;;;;;;21.03;13.03;;;;;;;-141.97;100.00;47926.56;5054014;28;20201;-82
2023/04/20 02:19:42;;;;;;;21.80;13.53;;;;;;;-141.97;100.00;47815.09;5054767;28;20191;-83
2023/04/20 02:22:08;;;;;;;21.57;13.10;;;;;;;-141.97;100.00;47722.81;5053930;28;20200;-83
2023/04/20 02:24:33;;;;;;;22.53;14.27;;;;;;;-141.97;100.00;47713.22;5054040;28;21104;-83
2023/04/20 02:27:00;;;;;;;22.87;14.97;;;;;;;-141.97;100.00;47895.81;5053741;28;20595;-83
2023/04/20 02:29:25;;;;;;;21.20;13.13;;;;;;;-141.97;100.00;47649.78;5054287;28;20162;-83
2023/04/20 02:31:50;;;;;;;24.10;14.83;;;;;;;-141.97;100.00;47930.41;5054003;28;20169;-83
2023/04/20 02:34:16;;;;;;;21.53;13.00;;;;;;;-141.97;100.00;47734.34;5053966;28;20181;-83
2023/04/20 02:36:41;;;;;;;18.73;12.83;;;;;;;-141.97;100.00;47742.03;5053552;28;20231;-83
2023/04/20 02:39:07;;;;;;;18.87;12.03;;;;;;;-141.97;100.00;47865.06;5053561;28;20366;-83
2023/04/20 02:41:32;;;;;;;20.23;13.47;;;;;;;-141.97;100.00;47715.13;5054219;28;20176;-83
2023/04/20 02:43:58;;;;;;;32.40;22.07;;;;;;;-141.97;100.00;47832.38;5053845;28;20654;-83
2023/04/20 02:46:23;;;;;;;20.93;12.80;;;;;;;-141.97;100.00;47772.78;5035525;28;20188;-83
2023/04/20 02:48:49;;;;;;;20.20;12.83;;;;;;;-141.97;100.00;47722.81;5053760;28;20170;-83
2023/04/20 02:51:14;;;;;;;23.10;14.70;;;;;;;-141.97;100.00;47845.84;5053558;28;20256;-82
2023/04/20 02:53:40;;;;;;;20.67;13.00;;;;;;;-141.97;100.00;47707.44;5054219;28;20197;-83
2023/04/20 02:56:05;;;;;;;19.47;12.70;;;;;;;-141.97;100.00;47868.91;5053427;28;20228;-83
2023/04/20 02:58:31;;;;;;;20.80;13.60;;;;;;;-141.97;100.00;47843.91;5053949;28;20161;-83
2023/04/20 03:01:00;;;;;;;18.23;12.23;;;;;;;-141.97;100.00;47824.69;5054803;28;20601;-84
2023/04/20 03:03:26;;;;;;;19.40;12.07;;;;;;;-141.97;100.00;47611.34;5071142;28;20246;-83
2023/04/20 03:05:52;;;;;;;20.70;13.33;;;;;;;-141.97;100.00;47859.28;5064332;28;20559;-84
2023/04/20 03:08:24;;;;;;;21.63;13.70;;;;;;;-141.97;100.00;47609.41;5028279;28;20188;-83
2023/04/20 03:10:49;;;;;;;19.33;13.17;;;;;;;-141.97;100.00;47857.38;5043652;28;20184;-83
2023/04/20 03:13:15;;;;;;;22.03;13.30;;;;;;;-141.97;100.00;47907.34;5045656;28;20264;-82
2023/04/20 03:15:42;;;;;;;19.13;13.10;;;;;;;-141.97;100.00;47807.41;5043581;28;20174;-84
2023/04/20 03:18:11;;;;;;;28.70;18.93;;;;;;;-141.97;100.00;47911.19;5045488;28;20189;-85
2023/04/20 03:20:36;;;;;;;39.23;26.37;;;;;;;-141.97;100.00;47707.44;5044510;28;20174;-83
2023/04/20 03:23:05;;;;;;;27.67;16.03;;;;;;;-141.97;100.00;47861.22;5042805;28;20177;-84
2023/04/20 03:25:31;;;;;;;25.27;16.43;;;;;;;-141.97;100.00;47842.00;5043557;28;20177;-82
2023/04/20 03:27:57;;;;;;;23.20;14.53;;;;;;;-141.97;100.00;47932.34;5032133;28;20176;-83
2023/04/20 03:30:22;;;;;;;23.10;14.27;;;;;;;-141.97;100.00;47865.06;5035783;28;20304;-83
2023/04/20 03:32:48;;;;;;;21.13;14.00;;;;;;;-141.97;100.00;47674.78;5053741;28;20168;-83
2023/04/20 03:35:13;;;;;;;20.57;14.73;;;;;;;-141.97;100.00;47711.28;5053439;28;20635;-83
2023/04/20 03:37:39;;;;;;;20.37;12.60;;;;;;;-141.97;100.00;47928.50;5064054;28;20231;-83
2023/04/20 03:40:06;;;;;;;21.57;14.43;;;;;;;-141.97;100.00;47722.81;5064129;28;20219;-83
2023/04/20 03:42:31;;;;;;;23.80;14.53;;;;;;;-141.97;100.00;47868.91;5033911;28;20264;-83
2023/04/20 03:44:57;;;;;;;23.63;13.83;;;;;;;-141.97;100.00;47792.03;5031063;28;20635;-83
2023/04/20 03:47:22;;;;;;;23.20;13.33;;;;;;;-141.97;100.00;47922.72;5035430;28;20288;-83
2023/04/20 03:49:48;;;;;;;24.67;15.20;;;;;;;-141.97;100.00;47799.72;5052889;28;20153;-83
2023/04/20 03:52:13;;;;;;;25.43;16.17;;;;;;;-141.97;100.00;47947.72;5034641;28;20250;-84
2023/04/20 03:54:39;;;;;;;26.57;14.47;;;;;;;-141.97;100.00;47874.69;5035651;28;20177;-83
2023/04/20 03:57:05;;;;;;;26.57;16.40;;;;;;;-141.97;100.00;47924.66;5051972;28;20642;-84
2023/04/20 03:59:30;;;;;;;25.53;14.93;;;;;;;-141.97;100.00;47861.22;5051219;28;20188;-83
2023/04/20 04:01:55;;;;;;;25.53;16.20;;;;;;;-141.97;100.00;47941.94;5053681;28;20211;-84
2023/04/20 04:04:21;;;;;;;24.87;14.93;;;;;;;-141.97;100.00;47732.44;5034794;28;20185;-84
2023/04/20 04:06:46;;;;;;;17.37;10.40;;;;;;;-141.97;100.00;47732.44;5051547;28;20176;-83
2023/04/20 04:09:12;;;;;;;22.30;13.63;;;;;;;-141.97;100.00;47726.66;5052388;28;20544;-84
2023/04/20 04:11:37;;;;;;;21.87;13.07;;;;;;;-141.97;100.00;47634.41;5053304;28;20618;-82
2023/04/20 04:14:04;;;;;;;19.40;12.83;;;;;;;-141.97;100.00;47645.94;5059515;28;20196;-83
2023/04/20 04:16:30;;;;;;;25.03;13.73;;;;;;;-141.97;100.00;47718.97;5052659;28;20242;-83
2023/04/20 04:18:55;;;;;;;22.80;14.57;;;;;;;-141.97;100.00;47949.66;5034522;28;20580;-84
2023/04/20 04:21:21;;;;;;;21.97;13.57;;;;;;;-141.97;100.00;47928.50;5051598;28;20223;-84
2023/04/20 04:23:47;;;;;;;20.20;13.43;;;;;;;-141.97;100.00;47924.66;5051865;28;20583;-84
2023/04/20 04:26:13;;;;;;;23.57;14.10;;;;;;;-141.97;100.00;47849.69;5050769;28;20258;-84
2023/04/20 04:28:39;;;;;;;24.17;14.17;;;;;;;-141.97;100.00;47840.06;5033804;28;20561;-84
2023/04/20 04:31:04;;;;;;;24.10;14.83;;;;;;;-141.97;100.00;47911.19;5032186;28;20577;-84
2023/04/20 04:33:32;;;;;;;22.83;14.17;;;;;;;-141.97;100.00;47861.22;5032012;28;20166;-84
2023/04/20 04:35:59;;;;;;;21.13;14.07;;;;;;;-141.97;100.00;47961.19;5031551;28;20275;-84
2023/04/20 04:38:25;;;;;;;24.30;15.23;;;;;;;-141.97;100.00;47728.59;5032269;28;20181;-84
2023/04/20 04:40:51;;;;;;;24.87;16.30;;;;;;;-141.97;100.00;47815.09;5042165;28;20193;-84
2023/04/20 04:43:18;;;;;;;28.07;16.27;;;;;;;-141.97;100.00;47742.03;5061685;28;20198;-84
2023/04/20 04:45:44;;;;;;;32.20;22.07;;;;;;;-141.97;100.00;47670.91;5053413;28;20168;-84
2023/04/20 04:48:10;;;;;;;22.50;15.20;;;;;;;-141.97;100.00;47661.31;5052377;28;20555;-85
2023/04/20 04:50:37;;;;;;;21.67;14.90;;;;;;;-141.97;100.00;47736.28;5033627;28;20676;-84
2023/04/20 04:53:03;;;;;;;22.87;15.67;;;;;;;-141.97;100.00;47915.03;5051858;28;20524;-83
2023/04/20 04:55:28;;;;;;;26.83;17.17;;;;;;;-141.97;100.00;47776.63;5051399;28;20252;-84
2023/04/20 04:57:53;;;;;;;27.27;17.33;;;;;;;-141.97;100.00;47745.88;5051683;28;20185;-84
2023/04/20 05:00:19;;;;;;;22.00;14.03;;;;;;;-141.97;100.00;47695.91;5050956;28;20216;-84
2023/04/20 05:02:44;;;;;;;25.17;15.70;;;;;;;-141.97;100.00;47888.13;5050696;28;20173;-84
2023/04/20 05:05:10;;;;;;;25.23;15.77;;;;;;;-141.97;100.00;47776.63;5050976;28;20264;-83
2023/04/20 05:07:37;;;;;;;21.73;15.13;;;;;;;-141.97;100.00;47843.91;5052832;28;20150;-84
2023/04/20 05:10:03;;;;;;;22.67;15.70;;;;;;;-141.97;100.00;47945.81;5030312;28;20232;-83
2023/04/20 05:12:29;;;;;;;26.80;14.87;;;;;;;-141.97;100.00;47720.91;5046260;28;20184;-83
2023/04/20 05:14:54;;;;;;;23.70;16.17;;;;;;;-141.97;100.00;47786.25;5051039;28;20568;-84
2023/04/20 05:17:20;;;;;;;23.47;15.83;;;;;;;-141.97;100.00;47872.75;5050467;28;20193;-83
2023/04/20 05:19:45;;;;;;;21.93;14.83;;;;;;;-141.97;100.00;47857.38;5050356;28;20183;-81
2023/04/20 05:22:11;;;;;;;22.50;14.70;;;;;;;-141.97;100.00;47828.53;5031945;28;20578;-81
2023/04/20 05:24:36;;;;;;;21.93;15.97;;;;;;;-141.97;100.00;47832.38;5030210;28;20264;-81
2023/04/20 05:27:02;;;;;;;22.50;15.07;;;;;;;-141.97;100.00;47790.09;5030720;28;20154;-82
2023/04/20 05:29:28;;;;;;;22.30;15.17;;;;;;;-141.97;99.52;47999.63;5030851;28;20253;-82
2023/04/20 05:31:54;;;;;;;19.83;13.60;;;;;;;-141.97;98.02;47813.16;5034691;28;20675;-81
2023/04/20 05:34:19;;;;;;;19.50;13.43;;;;;;;-141.97;97.45;47815.09;5029488;28;20614;-85
2023/04/20 05:36:45;;;;;;;18.00;12.90;;;;;;;-141.97;96.89;47803.56;5030794;28;20735;-83
2023/04/20 05:39:11;;;;;;;17.63;12.60;;;;;;;-141.97;95.79;47861.22;5030984;28;20168;-84
2023/04/20 05:41:37;;;;;;;19.13;10.83;;;;;;;-141.97;93.81;47776.63;5020078;28;20181;-82
2023/04/20 05:44:02;;;;;;;15.87;10.07;;;;;;;-141.97;92.78;47828.53;5051794;28;20174;-83
2023/04/20 05:46:30;;;;;;;15.83;11.77;;;;;;;-141.97;93.08;47799.72;5051229;28;20173;-83
2023/04/20 05:48:56;;;;;;;16.17;10.83;;;;;;;-141.97;92.70;47907.34;5052650;28;20258;-83
2023/04/20 05:51:22;;;;;;;16.20;11.60;;;;;;;-141.97;93.13;47743.97;5048548;28;20288;-83
2023/04/20 05:53:50;;;;;;;16.73;11.43;;;;;;;-141.97;93.44;47676.69;5012627;28;20166;-83
2023/04/20 05:56:17;;;;;;;15.77;10.70;;;;;;;-141.97;93.02;47622.88;5028759;28;20300;-83
2023/04/20 05:58:46;;;;;;;15.67;10.03;;;;;;;-141.97;92.15;47684.38;5030006;28;20167;-83
2023/04/20 06:01:17;;;;;;;14.90;9.60;;;;;;;-141.97;92.42;47949.66;5043534;28;20182;-84
2023/04/20 06:03:43;;;;;;;15.40;9.83;;;;;;;-141.97;92.40;47893.91;5049970;28;20168;-83
2023/04/20 06:06:08;;;;;;;15.33;9.67;;;;;;;-141.97;91.38;47822.78;5032563;28;20178;-83
2023/04/20 06:08:34;;;;;;;17.73;10.90;;;;;;;-141.97;90.88;47824.69;5049191;28;20638;-83
2023/04/20 06:10:59;;;;;;;18.90;11.83;;;;;;;-141.97;90.19;47711.28;5021112;28;20229;-84
2023/04/20 06:13:31;;;;;;;18.40;12.80;;;;;;;-141.97;90.54;47941.94;5043476;28;20253;-84
2023/04/20 06:15:57;;;;;;;18.10;12.13;;;;;;;-141.97;89.61;47861.22;5037443;28;20181;-84
2023/04/20 06:18:22;;;;;;;18.83;13.60;;;;;;;-141.97;90.05;47797.78;5038823;28;20186;-84
2023/04/20 06:20:51;;;;;;;18.17;11.90;;;;;;;-141.97;88.54;47886.22;5032431;28;20173;-83
2023/04/20 06:23:19;;;;;;;16.97;11.60;;;;;;;-141.97;88.60;47757.41;5046487;28;20208;-83
2023/04/20 06:25:45;;;;;;;15.20;11.27;;;;;;;-141.97;88.08;47736.28;5054585;28;20622;-83
2023/04/20 06:28:10;;;;;;;19.00;13.20;;;;;;;-141.97;88.26;47861.22;5053310;28;20173;-83
2023/04/20 06:30:42;;;;;;;14.77;8.90;;;;;;;-141.97;87.70;47672.84;5032354;28;20166;-83
2023/04/20 06:33:07;;;;;;;18.77;11.53;;;;;;;-141.97;87.51;47676.69;5016208;28;20224;-84
2023/04/20 06:35:36;;;;;;;18.10;11.47;;;;;;;-141.97;86.80;47838.16;5031697;28;20556;-84
2023/04/20 06:38:01;;;;;;;25.33;15.20;;;;;;;-141.97;87.08;47694.00;5029522;28;20204;-84
2023/04/20 06:40:28;;;;;;;34.13;22.10;;;;;;;-141.97;87.58;47707.44;5052169;28;20526;-84
2023/04/20 06:42:53;;;;;;;17.23;10.77;;;;;;;-141.97;87.13;47755.50;5033337;28;20162;-84
2023/04/20 06:45:21;;;;;;;18.07;11.20;;;;;;;-141.97;86.14;47909.28;5031446;28;20535;-84
2023/04/20 06:48:00;;;;;;;18.37;12.30;;;;;;;-141.97;85.60;47899.66;5026761;28;20268;-84
2023/04/20 06:50:26;;;;;;;14.73;10.43;;;;;;;-141.97;85.63;47595.97;5051753;28;20589;-83
2023/04/20 06:52:52;;;;;;;14.80;10.80;;;;;;;-141.97;86.80;47813.16;5016446;28;20232;-83
2023/04/20 06:55:17;;;;;;;18.60;9.47;;;;;;;-141.97;84.98;47895.81;5033657;28;20494;-83
2023/04/20 06:57:46;;;;;;;17.73;10.53;;;;;;;-141.97;85.52;47680.53;5026664;28;20193;-83
2023/04/20 07:02:56;;;;;;;15.00;10.17;;;;;;;-141.97;84.61;47682.47;5033026;28;20622;-84
2023/04/20 07:05:27;;;;;;;14.77;10.33;;;;;;;-141.97;83.74;47713.22;5032969;28;20244;-83
2023/04/20 07:08:01;;;;;;;16.73;10.23;;;;;;;-141.97;82.45;47907.34;5044734;28;20181;-84
2023/04/20 07:10:27;;;;;;;14.93;9.57;;;;;;;-141.97;82.89;47945.81;5041661;28;20306;-84
2023/04/20 07:12:53;;;;;;;13.10;9.17;;;;;;;-141.97;83.93;47659.38;5032790;28;20265;-84
2023/04/20 07:15:18;;;;;;;12.67;8.57;;;;;;;-141.97;84.22;47938.09;5014505;28;20546;-84
2023/04/20 07:17:50;;;;;;;12.23;8.57;;;;;;;-141.97;84.34;47707.44;5030784;28;20691;-84
2023/04/20 07:20:15;;;;;;;14.50;10.53;;;;;;;-141.97;83.80;47870.81;5052335;28;20158;-83
2023/04/20 07:22:41;;;;;;;14.43;9.27;;;;;;;-141.97;83.88;47797.78;5016475;28;20185;-83
2023/04/20 07:25:08;;;;;;;16.77;12.13;;;;;;;-141.97;83.89;47718.97;5017092;28;20169;-82
2023/04/20 07:27:36;;;;;;;16.13;12.00;;;;;;;-141.97;82.04;47651.69;5050786;28;20185;-83
2023/04/20 07:30:01;;;;;;;16.13;11.40;;;;;;;-141.97;81.35;47805.47;5053016;28;20158;-83
2023/04/20 07:32:27;;;;;;;15.70;9.80;;;;;;;-141.97;81.48;47955.41;5034429;28;20614;-83
2023/04/20 07:34:52;;;;;;;14.30;9.23;;;;;;;-141.97;80.73;47667.06;5025696;28;20230;-84
2023/04/20 07:37:18;;;;;;;15.27;10.13;;;;;;;-141.97;81.48;47930.41;5051282;28;20315;-83
2023/04/20 07:39:43;;;;;;;19.80;11.73;;;;;;;-141.97;81.82;47622.88;5050954;28;20421;-83
2023/04/20 07:42:12;;;;;;;15.67;11.07;;;;;;;-141.97;82.37;47907.34;5051511;28;20165;-83
2023/04/20 07:44:38;;;;;;;15.73;11.23;;;;;;;-141.97;81.66;47928.50;5034233;28;20179;-84
2023/04/20 07:47:04;;;;;;;17.30;12.60;;;;;;;-141.97;80.86;47805.47;5033000;28;20272;-83
2023/04/20 07:49:30;;;;;;;18.40;12.73;;;;;;;-141.97;81.10;47734.34;5033833;28;20219;-83
2023/04/20 07:51:58;;;;;;;17.30;10.97;;;;;;;-141.97;81.10;47803.56;5051462;28;20166;-83
2023/04/20 07:54:24;;;;;;;20.80;11.80;;;;;;;-141.97;82.00;47680.53;5033714;28;20169;-83
2023/04/20 07:56:53;;;;;;;17.17;11.80;;;;;;;-141.97;82.23;47888.13;5049160;28;20577;-84
2023/04/20 07:59:22;;;;;;;19.10;11.83;;;;;;;-141.97;81.17;47772.78;5050012;28;20184;-83
2023/04/20 08:01:47;;;;;;;15.73;10.87;;;;;;;-141.97;80.29;47976.56;5051513;28;20176;-84
2023/04/20 08:04:13;;;;;;;18.73;11.63;;;;;;;-141.97;81.08;47657.47;5050872;28;20169;-83
2023/04/20 08:06:39;;;;;;;15.70;10.80;;;;;;;-141.97;80.68;47782.41;5048578;28;20178;-84
2023/04/20 08:09:05;;;;;;;15.43;10.87;;;;;;;-141.97;80.86;47907.34;5049987;28;20185;-84
2023/04/20 08:11:30;;;;;;;19.07;12.13;;;;;;;-141.97;79.84;47768.94;5037323;28;20239;-84
2023/04/20 08:13:55;;;;;;;14.77;10.47;;;;;;;-141.97;57.23;47617.09;5051227;28;20188;-85
2023/04/20 08:16:21;;;;;;;13.87;10.43;;;;;;;-141.97;58.01;47793.94;5037669;28;20887;-83
2023/04/20 08:18:46;;;;;;;16.40;11.83;;;;;;;-141.97;58.26;47617.09;5031260;28;20198;-84
2023/04/20 08:21:15;;;;;;;15.40;11.57;;;;;;;-141.97;57.38;47630.56;5013434;28;20185;-84
2023/04/20 08:23:41;;;;;;;17.03;10.40;;;;;;;-141.97;57.00;47920.81;5043116;28;20185;-84
2023/04/20 08:26:07;;;;;;;21.40;12.80;;;;;;;-141.97;57.82;47626.72;5022828;28;20224;-83
2023/04/20 08:28:33;;;;;;;17.53;11.80;;;;;;;-141.97;57.19;47893.91;5013618;28;20186;-83
2023/04/20 08:30:59;;;;;;;18.63;13.03;;;;;;;-141.97;57.38;47818.94;5032892;28;20668;-83
2023/04/20 08:33:32;;;;;;;20.80;13.97;;;;;;;-141.97;57.05;47801.63;5032895;28;20272;-83
2023/04/20 08:35:57;;;;;;;18.17;12.30;;;;;;;-141.97;55.96;47857.38;5042778;28;20225;-83
2023/04/20 08:38:26;;;;;;;19.03;12.03;;;;;;;-141.97;54.50;47722.81;5063329;28;20157;-84
2023/04/20 08:40:54;;;;;;;17.67;11.33;;;;;;;-141.97;54.43;47815.09;5065570;28;20180;-84
2023/04/20 08:43:29;;;;;;;17.23;10.93;;;;;;;-141.97;54.68;47805.47;5051014;28;20295;-84
2023/04/20 08:46:04;;;;;;;16.37;11.30;;;;;;;-141.97;54.17;47788.19;5040865;28;20189;-83
2023/04/20 08:48:44;;;;;;;16.37;11.40;;;;;;;-141.97;53.79;47722.81;5023769;28;20529;-85
2023/04/20 08:51:20;;;;;;;16.93;12.00;;;;;;;-141.97;52.10;47853.53;5036140;28;20238;-84
2023/04/20 08:53:46;;;;;;;16.53;9.57;;;;;;;-141.97;52.77;47886.22;5038729;28;20767;-83
2023/04/20 08:56:11;;;;;;;16.17;8.30;;;;;;;-141.97;51.65;47551.75;5038594;28;20642;-83
2023/04/20 08:58:41;;;;;;;14.63;10.77;;;;;;;-141.97;51.27;47884.28;5022999;28;20220;-83
2023/04/20 09:01:13;;;;;;;15.30;11.43;;;;;;;-141.97;52.40;47653.63;5046711;28;20178;-83
2023/04/20 09:03:43;;;;;;;16.27;11.83;;;;;;;-141.97;52.00;47924.66;5043861;28;20302;-83
2023/04/20 09:06:17;;;;;;;16.27;11.43;;;;;;;-141.97;51.06;47767.03;5025303;28;20195;-85
2023/04/20 09:08:44;;;;;;;19.10;14.63;;;;;;;-141.97;50.81;47770.88;5050601;28;20174;-84
2023/04/20 09:11:26;;;;;;;15.37;11.77;;;;;;;-141.97;49.66;47674.78;5027436;28;20293;-84
2023/04/20 09:14:05;;;;;;;19.63;12.80;;;;;;;-141.97;49.83;47747.81;5051223;28;20168;-84
2023/04/20 09:16:31;;;;;;;14.30;8.83;;;;;;;-141.97;49.05;47765.09;5039446;28;20243;-83
2023/04/20 09:18:57;;;;;;;12.60;8.90;;;;;;;-141.97;49.66;47567.13;5036273;28;20174;-84
2023/04/20 09:21:24;;;;;;;16.07;10.00;;;;;;;-141.97;48.99;47853.53;5044651;28;20175;-84
2023/04/20 09:24:03;;;;;;;14.37;9.17;;;;;;;-141.97;48.72;47888.13;5059568;28;20154;-83
2023/04/20 09:26:37;;;;;;;13.43;9.03;;;;;;;-141.97;49.62;47607.50;5044370;28;20248;-84
2023/04/20 09:29:16;;;;;;;12.93;10.50;;;;;;;-141.97;49.00;47767.03;5031174;28;20168;-83
2023/04/20 09:31:53;;;;;;;14.17;10.63;;;;;;;-141.97;48.06;47826.63;5012960;28;20174;-84
2023/04/20 09:34:19;;;;;;;13.67;9.70;;;;;;;-141.97;47.65;47730.50;5021177;28;20302;-83
2023/04/20 09:36:49;;;;;;;14.37;10.30;;;;;;;-141.97;48.76;47549.84;5031657;28;20232;-83
2023/04/20 09:39:21;;;;;;;11.13;8.27;;;;;;;-141.97;47.30;47909.28;5050484;28;20181;-84
2023/04/20 09:41:54;;;;;;;13.13;10.07;;;;;;;-141.97;48.14;47768.94;5051171;28;20168;-84
2023/04/20 09:44:22;;;;;;;12.97;9.93;;;;;;;-141.97;49.04;47888.13;5051000;28;20177;-83
2023/04/20 09:46:47;;;;;;;14.50;10.57;;;;;;;-141.97;47.87;47849.69;5040219;28;20193;-84
2023/04/20 09:49:28;;;;;;;12.40;9.93;;;;;;;-141.97;47.42;47780.47;5033633;28;20642;-84
2023/04/20 09:52:06;;;;;;;15.83;10.07;;;;;;;-141.97;46.88;47757.41;5029103;28;20177;-84
2023/04/20 09:54:31;;;;;;;13.53;10.00;;;;;;;-141.97;45.19;47722.81;5045022;28;20204;-84
2023/04/20 09:57:00;;;;;;;15.57;11.07;;;;;;;-141.97;44.30;47909.28;5053628;28;20236;-83
2023/04/20 09:59:26;;;;;;;10.87;8.80;;;;;;;-141.97;44.30;47619.03;5036446;28;20650;-83
2023/04/20 10:01:52;;;;;;;13.17;10.03;;;;;;;-141.97;44.22;47763.19;5036561;28;20173;-84
2023/04/20 10:04:18;;;;;;;12.73;9.53;;;;;;;-141.97;42.47;47918.88;5053951;28;20644;-83
2023/04/20 10:06:56;;;;;;;11.20;8.83;;;;;;;-141.97;43.01;47813.16;5053355;28;20177;-84
2023/04/20 10:09:25;;;;;;;13.23;8.90;;;;;;;-141.97;43.69;47740.13;5056988;28;20185;-82
2023/04/20 10:12:05;;;;;;;12.47;9.83;;;;;;;-141.97;43.81;47734.34;5031572;28;20237;-84
2023/04/20 10:14:30;;;;;;;13.30;10.07;;;;;;;-141.97;42.71;47880.44;5062999;28;20204;-85
2023/04/20 10:17:01;;;;;;;11.90;9.13;;;;;;;-141.97;41.67;47776.63;5026965;28;20276;-85
2023/04/20 10:19:46;;;;;;;15.57;9.77;;;;;;;-141.97;41.79;47740.13;5046727;28;20166;-82
2023/04/20 10:22:25;;;;;;;11.60;9.20;;;;;;;-141.97;41.15;47832.38;5035992;28;20742;-84
2023/04/20 10:24:54;;;;;;;11.00;8.70;;;;;;;-141.97;42.99;47740.13;5036412;28;20180;-83
2023/04/20 10:27:27;;;;;;;12.93;10.10;;;;;;;-141.97;41.45;47780.47;5035603;28;20185;-84
2023/04/20 10:30:29;;;;;;;;;;;;;;;;;;;;;
2023/04/20 10:33:13;;;;;;;11.67;9.40;;;;;;;-141.97;40.86;47807.41;5053780;28;20176;-83
2023/04/20 10:35:50;;;;;;;12.47;8.80;;;;;;;-141.97;39.88;47834.31;5035068;28;20173;-84
2023/04/20 10:38:30;;;;;;;11.83;8.47;;;;;;;-141.97;39.26;47859.28;5045948;28;20203;-84
2023/04/20 10:40:56;;;;;;;10.70;8.50;;;;;;;-141.97;39.91;47728.59;5051873;28;20220;-83
2023/04/20 10:43:22;;;;;;;17.93;13.57;;;;;;;-141.97;40.41;47832.38;5048439;28;20181;-83
2023/04/20 10:45:49;;;;;;;12.70;10.07;;;;;;;-141.97;40.84;47690.16;5051218;28;20183;-84
2023/04/20 10:48:15;;;;;;;20.20;14.07;;;;;;;-141.97;40.95;47553.69;5034556;28;20213;-84
2023/04/20 10:50:40;;;;;;;13.47;10.23;;;;;;;-141.97;41.96;47724.75;5044977;28;20274;-82
2023/04/20 10:53:22;;;;;;;24.93;15.33;;;;;;;-141.97;43.02;47645.94;5047300;28;20189;-83
2023/04/20 10:56:00;;;;;;;20.37;15.80;;;;;;;-141.97;43.97;47684.38;5048204;28;20675;-84
2023/04/20 10:58:32;;;;;;;17.70;12.30;;;;;;;-141.97;48.64;47644.00;5022757;28;20227;-81
2023/04/20 11:01:04;;;;;;;18.30;13.30;;;;;;;-141.97;63.59;47567.13;5035912;28;20223;-82
2023/04/20 11:03:33;;;;;;;25.67;14.33;;;;;;;-141.97;66.51;47730.50;5048625;28;20211;-82